Time;durP1;ratioP1;P1;durP2;ratioP2;P2;SDS_P1;SDS_P2;PMS_P1;PMS_P2;Temp;Humidity;BMP_temperature;BMP_pressure;BME280_temperature;BME280_humidity;BME280_pressure;Samples;Min_cycle;Max_cycle;Signal;HPM_P1;HPM_P2
2021/07/16 00:00:33;;;;;;;;;;;;;;;;;;5003714;28;1174;-89
2021/07/16 00:02:58;;;;;;;;;;;;;;;;;;5002309;28;1563;-89
2021/07/16 00:05:23;;;;;;;;;;;;;;;;;;5000314;28;1593;-89
2021/07/16 00:07:48;;;;;;;;;;;;;;;;;;5003248;28;1910;-89
2021/07/16 00:10:15;;;;;;;;;;;;;;;;;;4991391;28;1517;-89
2021/07/16 00:12:40;;;;;;;;;;;;;;;;;;5004011;28;1341;-89
2021/07/16 00:15:05;;;;;;;;;;;;;;;;;;5003406;28;1588;-89
2021/07/16 00:17:31;;;;;;;;;;;;;;;;;;5004685;28;1138;-89
2021/07/16 00:19:56;;;;;;;;;;;;;;;;;;5005154;28;1649;-89
2021/07/16 00:22:22;;;;;;;;;;;;;;;;;;5004868;28;1611;-89
2021/07/16 00:24:47;;;;;;;;;;;;;;;;;;5006708;28;1638;-89
2021/07/16 00:27:13;;;;;;;;;;;;;;;;;;4994919;28;1914;-89
2021/07/16 00:29:38;;;;;;;;;;;;;;;;;;5008443;28;1114;-89
2021/07/16 00:32:03;;;;;;;;;;;;;;;;;;5003137;28;1333;-89
2021/07/16 00:34:28;;;;;;;;;;;;;;;;;;5006787;28;1766;-89
2021/07/16 00:36:54;;;;;;;;;;;;;;;;;;5004211;28;1137;-89
2021/07/16 00:39:19;;;;;;;;;;;;;;;;;;5009603;28;1512;-89
2021/07/16 00:41:44;;;;;;;;;;;;;;;;;;5005751;28;1260;-89
2021/07/16 00:44:09;;;;;;;;;;;;;;;;;;5003209;28;1126;-89
2021/07/16 00:46:34;;;;;;;;;;;;;;;;;;4990466;28;1902;-89
2021/07/16 00:48:59;;;;;;;;;;;;;;;;;;5008893;28;1213;-89
2021/07/16 00:51:25;;;;;;;;;;;;;;;;;;5003275;28;1665;-89
2021/07/16 00:53:53;;;;;;;;;;;;;;;;;;5006491;28;1603;-90
2021/07/16 00:56:18;;;;;;;;;;;;;;;;;;4992306;28;1814;-89
2021/07/16 00:58:43;;;;;;;;;;;;;;;;;;5004480;28;1695;-89
2021/07/16 01:01:08;;;;;;;;;;;;;;;;;;4987527;28;1364;-90
2021/07/16 01:03:34;;;;;;;;;;;;;;;;;;4985649;28;1534;-90
2021/07/16 01:06:00;;;;;;;;;;;;;;;;;;5004602;28;1435;-89
2021/07/16 01:08:25;;;;;;;;;;;;;;;;;;4994097;28;1906;-90
2021/07/16 01:10:50;;;;;;;;;;;;;;;;;;5004425;28;1645;-89
2021/07/16 01:13:15;;;;;;;;;;;;;;;;;;5007486;28;1194;-89
2021/07/16 01:15:41;;;;;;;;;;;;;;;;;;5002912;28;1126;-89
2021/07/16 01:18:06;;;;;;;;;;;;;;;;;;4994517;28;1177;-90
2021/07/16 01:20:31;;;;;;;;;;;;;;;;;;5006610;28;1587;-89
2021/07/16 01:22:57;;;;;;;;;;;;;;;;;;4994904;28;1522;-89
2021/07/16 01:25:23;;;;;;;;;;;;;;;;;;5006785;28;1634;-89
2021/07/16 01:27:49;;;;;;;;;;;;;;;;;;5004503;28;1911;-89
2021/07/16 01:30:14;;;;;;;;;;;;;;;;;;4993259;28;1158;-89
2021/07/16 01:32:40;;;;;;;;;;;;;;;;;;5003170;28;1516;-89
2021/07/16 01:35:05;;;;;;;;;;;;;;;;;;4992145;28;1039;-89
2021/07/16 01:37:31;;;;;;;;;;;;;;;;;;5002258;28;1118;-89
2021/07/16 01:39:57;;;;;;;;;;;;;;;;;;4990297;28;1629;-89
2021/07/16 01:42:22;;;;;;;;;;;;;;;;;;5007527;28;1366;-89
2021/07/16 01:44:47;;;;;;;;;;;;;;;;;;5004835;28;1583;-89
2021/07/16 01:47:13;;;;;;;;;;;;;;;;;;5004631;28;1953;-89
2021/07/16 01:49:38;;;;;;;;;;;;;;;;;;5003780;28;1467;-89
2021/07/16 01:52:03;;;;;;;;;;;;;;;;;;5008392;28;1564;-89
2021/07/16 01:54:28;;;;;;;;;;;;;;;;;;5005677;28;1583;-89
2021/07/16 01:56:54;;;;;;;;;;;;;;;;;;5005196;28;1144;-89
2021/07/16 01:59:19;;;;;;;;;;;;;;;;;;4992237;28;1409;-89
2021/07/16 02:01:44;;;;;;;;;;;;;;;;;;5005790;28;1272;-89
2021/07/16 02:04:10;;;;;;;;;;;;;;;;;;5003008;28;1551;-89
2021/07/16 02:06:36;;;;;;;;;;;;;;;;;;5006509;28;1894;-89
2021/07/16 02:09:01;;;;;;;;;;;;;;;;;;5006212;28;1618;-89
2021/07/16 02:11:26;;;;;;;;;;;;;;;;;;5002931;28;1303;-89
2021/07/16 02:13:52;;;;;;;;;;;;;;;;;;5006124;28;1459;-89
2021/07/16 02:16:17;;;;;;;;;;;;;;;;;;5004495;28;1463;-89
2021/07/16 02:18:49;;;;;;;;;;;;;;;;;;4991893;28;1810;-89
2021/07/16 02:21:14;;;;;;;;;;;;;;;;;;4992103;28;1373;-89
2021/07/16 02:23:39;;;;;;;;;;;;;;;;;;4991621;28;1236;-89
2021/07/16 02:26:04;;;;;;;;;;;;;;;;;;5004955;28;1554;-89
2021/07/16 02:28:30;;;;;;;;;;;;;;;;;;5002856;28;1906;-89
2021/07/16 02:30:56;;;;;;;;;;;;;;;;;;4993570;28;1348;-89
2021/07/16 02:33:21;;;;;;;;;;;;;;;;;;4999649;28;1265;-89
2021/07/16 02:35:47;;;;;;;;;;;;;;;;;;5005071;28;1542;-89
2021/07/16 02:38:15;;;;;;;;;;;;;;;;;;5003752;28;1383;-89
2021/07/16 02:40:40;;;;;;;;;;;;;;;;;;5005200;28;1661;-89
2021/07/16 02:43:05;;;;;;;;;;;;;;;;;;5001084;28;1257;-89
2021/07/16 02:45:30;;;;;;;;;;;;;;;;;;4990291;28;1533;-89
2021/07/16 02:47:55;;;;;;;;;;;;;;;;;;5006878;28;1906;-90
2021/07/16 02:50:28;;;;;;;;;;;;;;;;;;4992026;28;1181;-89
2021/07/16 02:52:53;;;;;;;;;;;;;;;;;;5004964;28;1559;-89
2021/07/16 02:55:18;;;;;;;;;;;;;;;;;;5006942;28;1587;-89
2021/07/16 02:57:43;;;;;;;;;;;;;;;;;;5003533;28;1154;-89
2021/07/16 03:00:12;;;;;;;;;;;;;;;;;;5004009;28;1292;-89
2021/07/16 03:02:41;;;;;;;;;;;;;;;;;;5002284;28;1523;-89
2021/07/16 03:05:07;;;;;;;;;;;;;;;;;;4992351;28;1341;-89
2021/07/16 03:07:32;;;;;;;;;;;;;;;;;;5003505;28;1943;-89
2021/07/16 03:09:57;;;;;;;;;;;;;;;;;;5002063;28;1721;-89
2021/07/16 03:12:23;;;;;;;;;;;;;;;;;;5002480;28;1484;-90
2021/07/16 03:14:48;;;;;;;;;;;;;;;;;;5005611;28;1443;-89
2021/07/16 03:17:13;;;;;;;;;;;;;;;;;;4990861;28;1236;-89
2021/07/16 03:19:38;;;;;;;;;;;;;;;;;;5002442;28;1277;-89
2021/07/16 03:22:03;;;;;;;;;;;;;;;;;;4991496;28;1600;-89
2021/07/16 03:24:29;;;;;;;;;;;;;;;;;;4991845;28;1592;-89
2021/07/16 03:26:54;;;;;;;;;;;;;;;;;;4992665;28;1914;-89
2021/07/16 03:29:19;;;;;;;;;;;;;;;;;;5001575;28;1111;-89
2021/07/16 03:31:44;;;;;;;;;;;;;;;;;;5003367;28;1447;-89
2021/07/16 03:34:09;;;;;;;;;;;;;;;;;;5003238;28;1626;-90
2021/07/16 03:36:35;;;;;;;;;;;;;;;;;;5001766;28;1153;-89
2021/07/16 03:39:00;;;;;;;;;;;;;;;;;;5000696;28;1571;-88
2021/07/16 03:41:25;;;;;;;;;;;;;;;;;;4991279;28;1295;-89
2021/07/16 03:43:50;;;;;;;;;;;;;;;;;;4989732;28;1222;-89
2021/07/16 03:46:16;;;;;;;;;;;;;;;;;;5009329;28;1618;-89
2021/07/16 03:48:41;;;;;;;;;;;;;;;;;;4997227;28;1914;-89
2021/07/16 03:51:06;;;;;;;;;;;;;;;;;;5006553;28;1358;-89
2021/07/16 03:53:32;;;;;;;;;;;;;;;;;;5010259;28;1965;-89
2021/07/16 03:55:57;;;;;;;;;;;;;;;;;;5017355;28;1603;-89
2021/07/16 03:58:22;;;;;;;;;;;;;;;;;;5021007;28;2348;-87
2021/07/16 04:00:47;;;;;;;;;;;;;;;;;;5036769;28;1086;-89
2021/07/16 04:03:15;;;;;;;;;;;;;;;;;;5012914;28;1450;-89
2021/07/16 04:05:40;;;;;;;;;;;;;;;;;;5008628;28;1451;-89
2021/07/16 04:08:06;;;;;;;;;;;;;;;;;;5008095;28;1914;-89
2021/07/16 04:10:36;;;;;;;;;;;;;;;;;;5008576;28;1658;-89
2021/07/16 04:13:05;;;;;;;;;;;;;;;;;;5004340;28;1287;-89
2021/07/16 04:15:30;;;;;;;;;;;;;;;;;;4994990;28;1220;-90
2021/07/16 04:17:58;;;;;;;;;;;;;;;;;;5006134;28;1531;-89
2021/07/16 04:20:24;;;;;;;;;;;;;;;;;;5009440;28;1280;-89
2021/07/16 04:22:49;;;;;;;;;;;;;;;;;;4995209;28;1418;-89
2021/07/16 04:25:16;;;;;;;;;;;;;;;;;;5007172;28;1575;-89
2021/07/16 04:27:42;;;;;;;;;;;;;;;;;;5005462;28;1962;-89
2021/07/16 04:30:08;;;;;;;;;;;;;;;;;;5003478;28;1157;-89
2021/07/16 04:32:33;;;;;;;;;;;;;;;;;;5005077;28;1535;-89
2021/07/16 04:34:59;;;;;;;;;;;;;;;;;;4995077;28;1432;-89
2021/07/16 04:37:24;;;;;;;;;;;;;;;;;;5005547;28;1335;-89
2021/07/16 04:39:49;;;;;;;;;;;;;;;;;;4993202;28;1671;-89
2021/07/16 04:42:14;;;;;;;;;;;;;;;;;;5002946;28;1229;-89
2021/07/16 04:44:40;;;;;;;;;;;;;;;;;;5006498;28;1618;-89
2021/07/16 04:47:05;;;;;;;;;;;;;;;;;;5007055;28;1895;-89
2021/07/16 04:49:30;;;;;;;;;;;;;;;;;;4991433;28;1593;-89
2021/07/16 04:51:55;;;;;;;;;;;;;;;;;;5007347;28;1474;-89
2021/07/16 04:54:20;;;;;;;;;;;;;;;;;;4991523;28;1558;-89
2021/07/16 04:56:46;;;;;;;;;;;;;;;;;;5006850;28;1178;-90
2021/07/16 04:59:11;;;;;;;;;;;;;;;;;;4993554;28;1138;-90
2021/07/16 05:01:36;;;;;;;;;;;;;;;;;;5005760;28;1435;-89
2021/07/16 05:04:01;;;;;;;;;;;;;;;;;;5004557;28;1563;-89
2021/07/16 05:06:26;;;;;;;;;;;;;;;;;;4988383;28;1473;-90
2021/07/16 05:08:52;;;;;;;;;;;;;;;;;;5004594;28;1910;-90
2021/07/16 05:11:17;;;;;;;;;;;;;;;;;;5004548;28;1599;-89
2021/07/16 05:13:42;;;;;;;;;;;;;;;;;;5006163;28;1146;-89
2021/07/16 05:16:08;;;;;;;;;;;;;;;;;;5001935;28;1281;-89
2021/07/16 05:18:33;;;;;;;;;;;;;;;;;;4993388;28;1510;-89
2021/07/16 05:20:59;;;;;;;;;;;;;;;;;;4993130;28;1354;-89
2021/07/16 05:23:24;;;;;;;;;;;;;;;;;;5005809;28;1379;-89
2021/07/16 05:25:49;;;;;;;;;;;;;;;;;;5005848;28;1583;-90
2021/07/16 05:28:14;;;;;;;;;;;;;;;;;;5004251;28;1978;-90
2021/07/16 05:30:40;;;;;;;;;;;;;;;;;;5006762;28;1482;-90
2021/07/16 05:33:05;;;;;;;;;;;;;;;;;;5004160;28;1221;-90
2021/07/16 05:35:30;;;;;;;;;;;;;;;;;;5002899;28;1575;-90
2021/07/16 05:37:55;;;;;;;;;;;;;;;;;;5004685;28;1530;-90
2021/07/16 05:40:20;;;;;;;;;;;;;;;;;;5005311;28;1634;-90
2021/07/16 05:42:46;;;;;;;;;;;;;;;;;;5001612;28;1223;-89
2021/07/16 05:45:11;;;;;;;;;;;;;;;;;;5002004;28;1332;-89
2021/07/16 05:47:36;;;;;;;;;;;;;;;;;;5003774;28;1973;-89
2021/07/16 05:50:01;;;;;;;;;;;;;;;;;;5002302;28;1327;-89
2021/07/16 05:52:27;;;;;;;;;;;;;;;;;;4992924;28;1366;-89
2021/07/16 05:54:53;;;;;;;;;;;;;;;;;;4991963;28;1628;-89
2021/07/16 05:57:18;;;;;;;;;;;;;;;;;;5004810;28;1463;-89
2021/07/16 05:59:43;;;;;;;;;;;;;;;;;;5001287;28;1146;-89
2021/07/16 06:02:09;;;;;;;;;;;;;;;;;;4975896;28;1306;-89
2021/07/16 06:04:34;;;;;;;;;;;;;;;;;;5003679;28;1554;-89
2021/07/16 06:06:59;;;;;;;;;;;;;;;;;;5001428;28;1968;-89
2021/07/16 06:09:25;;;;;;;;;;;;;;;;;;5004649;28;1558;-89
2021/07/16 06:11:50;;;;;;;;;;;;;;;;;;5002785;28;1476;-89
2021/07/16 06:14:15;;;;;;;;;;;;;;;;;;5007002;28;1265;-89
2021/07/16 06:16:40;;;;;;;;;;;;;;;;;;5004689;28;1154;-89
2021/07/16 06:19:05;;;;;;;;;;;;;;;;;;5001751;28;1587;-89
2021/07/16 06:21:31;;;;;;;;;;;;;;;;;;5004627;28;1366;-89
2021/07/16 06:23:56;;;;;;;;;;;;;;;;;;5003107;28;1908;-89
2021/07/16 06:26:36;;;;;;;;;;;;;;;;;;5002824;28;1747;-89
2021/07/16 06:29:04;;;;;;;;;;;;;;;;;;5005662;28;1955;-91
2021/07/16 06:31:30;;;;;;;;;;;;;;;;;;5006960;28;1785;-92
2021/07/16 06:33:55;;;;;;;;;;;;;;;;;;5002523;28;1099;-92
2021/07/16 06:36:20;;;;;;;;;;;;;;;;;;5001930;28;1309;-91
2021/07/16 06:38:45;;;;;;;;;;;;;;;;;;5006994;28;1531;-90
2021/07/16 06:41:10;;;;;;;;;;;;;;;;;;5003819;28;1769;-90
2021/07/16 06:43:36;;;;;;;;;;;;;;;;;;5003922;28;1102;-90
2021/07/16 06:46:01;;;;;;;;;;;;;;;;;;5003154;28;1661;-90
2021/07/16 06:48:26;;;;;;;;;;;;;;;;;;5007335;28;1926;-91
2021/07/16 06:50:51;;;;;;;;;;;;;;;;;;5001400;28;1121;-91
2021/07/16 06:53:16;;;;;;;;;;;;;;;;;;5002917;28;1575;-91
2021/07/16 06:55:42;;;;;;;;;;;;;;;;;;4989014;28;1699;-90
2021/07/16 06:58:07;;;;;;;;;;;;;;;;;;5003241;28;1296;-90
2021/07/16 07:00:34;;;;;;;;;;;;;;;;;;5004243;28;1495;-90
2021/07/16 07:02:59;;;;;;;;;;;;;;;;;;5008786;28;1291;-91
2021/07/16 07:05:25;;;;;;;;;;;;;;;;;;5008836;28;1181;-90
2021/07/16 07:07:51;;;;;;;;;;;;;;;;;;5008403;28;1966;-90
2021/07/16 07:10:16;;;;;;;;;;;;;;;;;;5008209;28;1603;-91
2021/07/16 07:12:42;;;;;;;;;;;;;;;;;;5008826;28;1400;-90
2021/07/16 07:15:07;;;;;;;;;;;;;;;;;;5005556;28;1282;-90
2021/07/16 07:17:33;;;;;;;;;;;;;;;;;;5001440;28;1544;-90
2021/07/16 07:19:58;;;;;;;;;;;;;;;;;;5009749;28;1295;-90
2021/07/16 07:22:23;;;;;;;;;;;;;;;;;;5005010;28;1272;-90
2021/07/16 07:24:48;;;;;;;;;;;;;;;;;;5000666;28;1605;-90
2021/07/16 07:27:13;;;;;;;;;;;;;;;;;;5003398;28;1966;-90
2021/07/16 07:29:39;;;;;;;;;;;;;;;;;;5004637;28;1163;-90
2021/07/16 07:32:04;;;;;;;;;;;;;;;;;;5000337;28;1635;-90
2021/07/16 07:34:29;;;;;;;;;;;;;;;;;;5002741;28;1162;-90
2021/07/16 07:36:57;;;;;;;;;;;;;;;;;;5004364;28;1082;-90
2021/07/16 07:39:22;;;;;;;;;;;;;;;;;;5004604;28;1647;-89
2021/07/16 07:41:47;;;;;;;;;;;;;;;;;;5002812;28;1351;-90
2021/07/16 07:44:13;;;;;;;;;;;;;;;;;;5003078;28;1175;-89
2021/07/16 07:46:38;;;;;;;;;;;;;;;;;;5003495;28;1288;-89
2021/07/16 07:49:06;;;;;;;;;;;;;;;;;;5004214;28;1968;-89
2021/07/16 07:51:31;;;;;;;;;;;;;;;;;;5003673;28;1269;-91
2021/07/16 07:53:57;;;;;;;;;;;;;;;;;;5003242;28;1126;-91
2021/07/16 07:56:22;;;;;;;;;;;;;;;;;;5004487;28;1553;-91
2021/07/16 07:58:47;;;;;;;;;;;;;;;;;;5003490;28;1563;-91
2021/07/16 08:01:12;;;;;;;;;;;;;;;;;;5002878;28;1367;-91
2021/07/16 08:03:38;;;;;;;;;;;;;;;;;;4993265;28;1405;-91
2021/07/16 08:06:05;;;;;;;;;;;;;;;;;;5001342;28;1618;-91
2021/07/16 08:08:31;;;;;;;;;;;;;;;;;;5007471;28;1918;-91
2021/07/16 08:10:56;;;;;;;;;;;;;;;;;;5005653;28;1559;-91
2021/07/16 08:13:22;;;;;;;;;;;;;;;;;;5004728;28;1335;-92
2021/07/16 08:15:47;;;;;;;;;;;;;;;;;;5004380;28;1261;-91
2021/07/16 08:18:12;;;;;;;;;;;;;;;;;;4987264;28;1688;-91
2021/07/16 08:20:37;;;;;;;;;;;;;;;;;;5004575;28;1169;-92
2021/07/16 08:23:02;;;;;;;;;;;;;;;;;;5004551;28;1398;-92
2021/07/16 08:25:28;;;;;;;;;;;;;;;;;;4993491;28;1616;-91
2021/07/16 08:27:53;;;;;;;;;;;;;;;;;;4991496;28;1934;-92
2021/07/16 08:30:18;;;;;;;;;;;;;;;;;;5004929;28;1522;-92
2021/07/16 08:32:43;;;;;;;;;;;;;;;;;;4996050;28;1630;-92
2021/07/16 08:35:09;;;;;;;;;;;;;;;;;;4994757;28;1292;-91
2021/07/16 08:37:34;;;;;;;;;;;;;;;;;;4994396;28;1644;-91
2021/07/16 08:39:59;;;;;;;;;;;;;;;;;;5011013;28;1649;-92
2021/07/16 08:42:26;;;;;;;;;;;;;;;;;;5003878;28;1281;-91
2021/07/16 08:44:51;;;;;;;;;;;;;;;;;;4996617;28;1366;-91
2021/07/16 08:47:17;;;;;;;;;;;;;;;;;;4993063;28;1890;-91
2021/07/16 08:49:42;;;;;;;;;;;;;;;;;;4993540;28;1625;-91
2021/07/16 08:52:07;;;;;;;;;;;;;;;;;;4978426;28;1590;-91
2021/07/16 08:54:34;;;;;;;;;;;;;;;;;;4979307;28;1544;-93
2021/07/16 08:57:00;;;;;;;;;;;;;;;;;;4988048;28;1251;-91
2021/07/16 08:59:25;;;;;;;;;;;;;;;;;;4993659;28;1468;-91
2021/07/16 09:01:51;;;;;;;;;;;;;;;;;;4994978;28;1389;-91
2021/07/16 09:04:16;;;;;;;;;;;;;;;;;;4994263;28;1642;-91
2021/07/16 09:06:48;;;;;;;;;;;;;;;;;;4994990;28;1352;-91
2021/07/16 09:09:14;;;;;;;;;;;;;;;;;;4990457;28;1960;-91
2021/07/16 09:11:43;;;;;;;;;;;;;;;;;;4994768;28;1202;-92
2021/07/16 09:14:15;;;;;;;;;;;;;;;;;;4992110;28;1566;-91
2021/07/16 09:16:40;;;;;;;;;;;;;;;;;;4995437;28;1299;-92
2021/07/16 09:19:05;;;;;;;;;;;;;;;;;;4992630;28;1561;-91
2021/07/16 09:21:31;;;;;;;;;;;;;;;;;;4995628;28;1358;-91
2021/07/16 09:23:56;;;;;;;;;;;;;;;;;;4994328;28;1290;-92
2021/07/16 09:26:25;;;;;;;;;;;;;;;;;;4975528;28;1749;-91
2021/07/16 09:28:50;;;;;;;;;;;;;;;;;;4982008;28;1887;-91
2021/07/16 09:31:17;;;;;;;;;;;;;;;;;;5004135;28;1367;-91
2021/07/16 09:33:42;;;;;;;;;;;;;;;;;;5003117;28;1623;-91
2021/07/16 09:36:08;;;;;;;;;;;;;;;;;;4973826;28;1621;-90
2021/07/16 09:38:33;;;;;;;;;;;;;;;;;;4994857;28;1671;-92
2021/07/16 09:41:00;;;;;;;;;;;;;;;;;;4977045;28;1665;-91
2021/07/16 09:43:26;;;;;;;;;;;;;;;;;;4976341;28;1308;-92
2021/07/16 09:45:51;;;;;;;;;;;;;;;;;;5005383;28;1324;-91
2021/07/16 09:48:32;;;;;;;;;;;;;;;;;;5007374;28;1878;-91
2021/07/16 09:51:10;;;;;;;;;;;;;;;;;;4994101;28;1362;-92
2021/07/16 09:53:54;;;;;;;;;;;;;;;;;;4992306;28;1265;-92
2021/07/16 09:56:21;;;;;;;;;;;;;;;;;;4976465;28;1760;-92
2021/07/16 09:58:46;;;;;;;;;;;;;;;;;;5006239;28;1252;-91
2021/07/16 10:01:12;;;;;;;;;;;;;;;;;;4989670;28;1219;-92
2021/07/16 10:03:38;;;;;;;;;;;;;;;;;;4991969;28;1242;-92
2021/07/16 10:06:03;;;;;;;;;;;;;;;;;;4990532;28;1592;-91
2021/07/16 10:08:30;;;;;;;;;;;;;;;;;;4992880;28;1952;-91
2021/07/16 10:10:55;;;;;;;;;;;;;;;;;;4976112;28;1578;-91
2021/07/16 10:13:21;;;;;;;;;;;;;;;;;;4998375;28;1344;-91
2021/07/16 10:15:46;;;;;;;;;;;;;;;;;;4977233;28;1571;-91
2021/07/16 10:18:11;;;;;;;;;;;;;;;;;;5005987;28;1666;-91
2021/07/16 10:20:36;;;;;;;;;;;;;;;;;;5002400;28;1240;-91
2021/07/16 10:23:02;;;;;;;;;;;;;;;;;;5003174;28;1520;-91
2021/07/16 10:25:27;;;;;;;;;;;;;;;;;;5005789;28;1702;-92
2021/07/16 10:27:52;;;;;;;;;;;;;;;;;;4991814;28;1954;-91
2021/07/16 10:30:18;;;;;;;;;;;;;;;;;;4988743;28;1478;-92
2021/07/16 10:32:50;;;;;;;;;;;;;;;;;;4992204;28;1406;-91
2021/07/16 10:35:20;;;;;;;;;;;;;;;;;;4976265;28;1623;-92
2021/07/16 10:37:45;;;;;;;;;;;;;;;;;;4993984;28;1592;-91
2021/07/16 10:40:29;;;;;;;;;;;;;;;;;;4991916;28;1557;-91
2021/07/16 10:42:54;;;;;;;;;;;;;;;;;;5002806;28;1357;-91
2021/07/16 10:45:29;;;;;;;;;;;;;;;;;;5004219;28;1503;-91
2021/07/16 10:47:54;;;;;;;;;;;;;;;;;;4974178;28;1911;-91
2021/07/16 10:50:28;;;;;;;;;;;;;;;;;;4992207;28;1528;-91
2021/07/16 10:52:54;;;;;;;;;;;;;;;;;;5002953;28;1336;-91
2021/07/16 10:55:19;;;;;;;;;;;;;;;;;;5009263;28;1655;-91
2021/07/16 10:57:45;;;;;;;;;;;;;;;;;;4993010;28;1181;-91
2021/07/16 11:00:31;;;;;;;;;;;;;;;;;;4991735;28;1240;-91
2021/07/16 11:03:05;;;;;;;;;;;;;;;;;;4981371;28;1281;-93
2021/07/16 11:05:34;;;;;;;;;;;;;;;;;;4982654;28;1591;-91
2021/07/16 11:07:59;;;;;;;;;;;;;;;;;;5005033;28;1954;-91
2021/07/16 11:10:43;;;;;;;;;;;;;;;;;;5006268;28;1727;-91
2021/07/16 11:13:27;;;;;;;;;;;;;;;;;;5003960;28;1284;-91
2021/07/16 11:15:52;;;;;;;;;;;;;;;;;;4993895;28;1348;-91
2021/07/16 11:18:27;;;;;;;;;;;;;;;;;;4990979;28;1655;-91
2021/07/16 11:20:52;;;;;;;;;;;;;;;;;;4977885;28;1221;-91
2021/07/16 11:23:19;;;;;;;;;;;;;;;;;;5000861;28;1486;-92
2021/07/16 11:25:50;;;;;;;;;;;;;;;;;;4992806;28;1655;-91
2021/07/16 11:28:15;;;;;;;;;;;;;;;;;;4978018;28;1956;-91
2021/07/16 11:30:44;;;;;;;;;;;;;;;;;;5006637;28;1304;-92
2021/07/16 11:33:09;;;;;;;;;;;;;;;;;;5004461;28;1603;-92
2021/07/16 11:35:34;;;;;;;;;;;;;;;;;;4996966;28;1197;-92
2021/07/16 11:38:03;;;;;;;;;;;;;;;;;;4977090;28;1371;-92
2021/07/16 11:40:29;;;;;;;;;;;;;;;;;;5004140;28;1635;-92
2021/07/16 11:42:54;;;;;;;;;;;;;;;;;;5029799;23;3653;-87
2021/07/16 11:45:20;;;;;;;;;;;;;;;;;;5010381;28;1125;-87
2021/07/16 11:47:45;;;;;;;;;;;;;;;;;;5011942;28;1914;-86
2021/07/16 11:50:11;;;;;;;;;;;;;;;;;;5012857;28;1685;-86
2021/07/16 11:52:36;;;;;;;;;;;;;;;;;;4991707;28;1726;-86
2021/07/16 11:55:09;;;;;;;;;;;;;;;;;;4988089;28;1633;-86
2021/07/16 11:57:36;;;;;;;;;;;;;;;;;;5009273;28;1311;-86
2021/07/16 12:00:02;;;;;;;;;;;;;;;;;;4992767;28;1181;-86
2021/07/16 12:02:27;;;;;;;;;;;;;;;;;;4990034;28;1388;-87
2021/07/16 12:05:02;;;;;;;;;;;;;;;;;;4990053;28;1699;-86
2021/07/16 12:07:33;;;;;;;;;;;;;;;;;;4993089;28;1902;-87
2021/07/16 12:09:58;;;;;;;;;;;;;;;;;;5009700;28;1650;-87
2021/07/16 12:12:24;;;;;;;;;;;;;;;;;;5007673;28;1351;-86
2021/07/16 12:14:53;;;;;;;;;;;;;;;;;;4992784;28;1210;-86
2021/07/16 12:17:19;;;;;;;;;;;;;;;;;;4995698;28;1515;-86
2021/07/16 12:19:45;;;;;;;;;;;;;;;;;;4992983;28;1154;-87
2021/07/16 12:22:11;;;;;;;;;;;;;;;;;;5010224;28;1330;-87
2021/07/16 12:24:37;;;;;;;;;;;;;;;;;;4991266;28;1656;-86
2021/07/16 12:27:03;;;;;;;;;;;;;;;;;;4996707;28;1981;-86
2021/07/16 12:29:28;;;;;;;;;;;;;;;;;;4999060;28;976;-86
2021/07/16 12:31:53;;;;;;;;;;;;;;;;;;5007472;28;1299;-87
2021/07/16 12:34:19;;;;;;;;;;;;;;;;;;5006701;28;1147;-87
2021/07/16 12:36:47;;;;;;;;;;;;;;;;;;5006345;28;1670;-86
2021/07/16 12:39:18;;;;;;;;;;;;;;;;;;4998981;28;1576;-86
2021/07/16 12:41:43;;;;;;;;;;;;;;;;;;5005728;28;1296;-86
2021/07/16 12:44:11;;;;;;;;;;;;;;;;;;5006071;28;1099;-86
2021/07/16 12:46:37;;;;;;;;;;;;;;;;;;4993520;28;1269;-86
2021/07/16 12:49:05;;;;;;;;;;;;;;;;;;5006072;28;1910;-87
2021/07/16 12:51:37;;;;;;;;;;;;;;;;;;5004740;28;1115;-87
2021/07/16 12:54:03;;;;;;;;;;;;;;;;;;4992420;28;1575;-87
2021/07/16 12:56:29;;;;;;;;;;;;;;;;;;5007938;28;1460;-86
2021/07/16 12:58:56;;;;;;;;;;;;;;;;;;4991693;28;1071;-86
2021/07/16 13:01:24;;;;;;;;;;;;;;;;;;4991326;28;1193;-86
2021/07/16 13:03:49;;;;;;;;;;;;;;;;;;5007191;28;1559;-86
2021/07/16 13:06:15;;;;;;;;;;;;;;;;;;5005401;28;1174;-86
2021/07/16 13:08:40;;;;;;;;;;;;;;;;;;4990737;28;1972;-86
2021/07/16 13:11:10;;;;;;;;;;;;;;;;;;5005903;28;1560;-86
2021/07/16 13:13:35;;;;;;;;;;;;;;;;;;4993582;28;1281;-87
2021/07/16 13:16:19;;;;;;;;;;;;;;;;;;4992550;28;1142;-86
2021/07/16 13:18:57;;;;;;;;;;;;;;;;;;4990337;28;1142;-86
2021/07/16 13:21:23;;;;;;;;;;;;;;;;;;5009048;28;1564;-86
2021/07/16 13:23:48;;;;;;;;;;;;;;;;;;5004554;28;1308;-86
2021/07/16 13:26:13;;;;;;;;;;;;;;;;;;5006609;28;1631;-86
2021/07/16 13:28:39;;;;;;;;;;;;;;;;;;4992256;28;2041;-86
2021/07/16 13:31:04;;;;;;;;;;;;;;;;;;4992838;28;1215;-86
2021/07/16 13:33:30;;;;;;;;;;;;;;;;;;5005598;28;1590;-86
2021/07/16 13:35:55;;;;;;;;;;;;;;;;;;4989389;28;1274;-87
2021/07/16 13:38:20;;;;;;;;;;;;;;;;;;5007847;28;1135;-87
2021/07/16 13:40:45;;;;;;;;;;;;;;;;;;4995118;28;1605;-86
2021/07/16 13:43:11;;;;;;;;;;;;;;;;;;4991072;28;1308;-86
2021/07/16 13:45:36;;;;;;;;;;;;;;;;;;4992314;28;1513;-86
2021/07/16 13:48:02;;;;;;;;;;;;;;;;;;5012479;28;1914;-87
2021/07/16 13:50:27;;;;;;;;;;;;;;;;;;4995377;28;1150;-86
2021/07/16 13:52:52;;;;;;;;;;;;;;;;;;5005866;28;1439;-86
2021/07/16 13:55:17;;;;;;;;;;;;;;;;;;5009916;28;1580;-86
2021/07/16 13:57:42;;;;;;;;;;;;;;;;;;4979087;28;1399;-86
2021/07/16 14:00:08;;;;;;;;;;;;;;;;;;4995506;28;1165;-86
2021/07/16 14:02:33;;;;;;;;;;;;;;;;;;4993868;28;1300;-86
2021/07/16 14:04:58;;;;;;;;;;;;;;;;;;4992439;28;1585;-86
2021/07/16 14:07:24;;;;;;;;;;;;;;;;;;4991248;28;1972;-86
2021/07/16 14:09:49;;;;;;;;;;;;;;;;;;4977131;28;1553;-86
2021/07/16 14:12:14;;;;;;;;;;;;;;;;;;5005444;28;1363;-86
2021/07/16 14:14:42;;;;;;;;;;;;;;;;;;5003016;28;1110;-87
2021/07/16 14:17:07;;;;;;;;;;;;;;;;;;4993395;28;1703;-86
2021/07/16 14:19:32;;;;;;;;;;;;;;;;;;4993483;28;1404;-87
2021/07/16 14:21:57;;;;;;;;;;;;;;;;;;4994220;28;1297;-86
2021/07/16 14:24:22;;;;;;;;;;;;;;;;;;5003963;28;1615;-87
2021/07/16 14:26:48;;;;;;;;;;;;;;;;;;5006065;28;1608;-86
2021/07/16 14:29:13;;;;;;;;;;;;;;;;;;5002764;28;1967;-86
2021/07/16 14:31:38;;;;;;;;;;;;;;;;;;4994109;28;1332;-86
2021/07/16 14:34:03;;;;;;;;;;;;;;;;;;5009576;28;1615;-86
2021/07/16 14:36:28;;;;;;;;;;;;;;;;;;4994168;28;1192;-87
2021/07/16 14:38:53;;;;;;;;;;;;;;;;;;4992117;28;1416;-86
2021/07/16 14:41:20;;;;;;;;;;;;;;;;;;4991526;28;1838;-86
2021/07/16 14:43:45;;;;;;;;;;;;;;;;;;4989649;28;1826;-86
2021/07/16 14:46:11;;;;;;;;;;;;;;;;;;4995443;28;1225;-85
2021/07/16 14:48:36;;;;;;;;;;;;;;;;;;4993621;28;1982;-86
2021/07/16 14:51:01;;;;;;;;;;;;;;;;;;5004365;28;1146;-86
2021/07/16 14:53:26;;;;;;;;;;;;;;;;;;4998409;28;1609;-86
2021/07/16 14:55:51;;;;;;;;;;;;;;;;;;5006945;28;1634;-86
2021/07/16 14:58:17;;;;;;;;;;;;;;;;;;5007381;28;1229;-86
2021/07/16 15:00:43;;;;;;;;;;;;;;;;;;5003674;28;1524;-87
2021/07/16 15:03:09;;;;;;;;;;;;;;;;;;4990899;28;1368;-87
2021/07/16 15:05:36;;;;;;;;;;;;;;;;;;4989968;28;1593;-87
2021/07/16 15:08:01;;;;;;;;;;;;;;;;;;4996071;28;1891;-86
2021/07/16 15:10:27;;;;;;;;;;;;;;;;;;4999731;28;1666;-86
2021/07/16 15:12:52;;;;;;;;;;;;;;;;;;4989887;28;1363;-87
2021/07/16 15:15:17;;;;;;;;;;;;;;;;;;5008007;28;1331;-86
2021/07/16 15:17:42;;;;;;;;;;;;;;;;;;5005134;28;1122;-87
2021/07/16 15:20:07;;;;;;;;;;;;;;;;;;5004655;28;1638;-86
2021/07/16 15:22:33;;;;;;;;;;;;;;;;;;4991888;28;1430;-87
2021/07/16 15:24:58;;;;;;;;;;;;;;;;;;4989700;28;1772;-86
2021/07/16 15:27:23;;;;;;;;;;;;;;;;;;5003873;28;1906;-86
2021/07/16 15:29:48;;;;;;;;;;;;;;;;;;5004641;28;1118;-86
2021/07/16 15:32:13;;;;;;;;;;;;;;;;;;5006610;28;1359;-86
2021/07/16 15:34:39;;;;;;;;;;;;;;;;;;4989620;28;1670;-86
2021/07/16 15:37:05;;;;;;;;;;;;;;;;;;4990481;28;1276;-86
2021/07/16 15:39:30;;;;;;;;;;;;;;;;;;5009244;28;1673;-86
2021/07/16 15:41:55;;;;;;;;;;;;;;;;;;4993638;28;1319;-86
2021/07/16 15:44:23;;;;;;;;;;;;;;;;;;5010012;28;1102;-87
2021/07/16 15:46:48;;;;;;;;;;;;;;;;;;4997513;28;1229;-86
2021/07/16 15:49:15;;;;;;;;;;;;;;;;;;4997800;28;1976;-87
2021/07/16 15:51:40;;;;;;;;;;;;;;;;;;5009045;28;1308;-86
2021/07/16 15:54:05;;;;;;;;;;;;;;;;;;5007219;28;1567;-86
2021/07/16 15:56:30;;;;;;;;;;;;;;;;;;5010615;28;1675;-86
2021/07/16 15:58:55;;;;;;;;;;;;;;;;;;5006308;28;1127;-86
2021/07/16 16:01:20;;;;;;;;;;;;;;;;;;5011211;28;1074;-86
2021/07/16 16:03:46;;;;;;;;;;;;;;;;;;4997997;28;1595;-86
2021/07/16 16:06:11;;;;;;;;;;;;;;;;;;5008823;28;1461;-87
2021/07/16 16:08:36;;;;;;;;;;;;;;;;;;4994360;28;1902;-86
2021/07/16 16:11:02;;;;;;;;;;;;;;;;;;4998548;28;1585;-86
2021/07/16 16:13:30;;;;;;;;;;;;;;;;;;5002823;28;1396;-86
2021/07/16 16:15:55;;;;;;;;;;;;;;;;;;4993329;28;1329;-87
2021/07/16 16:18:21;;;;;;;;;;;;;;;;;;5011496;28;1366;-86
2021/07/16 16:20:46;;;;;;;;;;;;;;;;;;4995526;28;1659;-86
2021/07/16 16:23:11;;;;;;;;;;;;;;;;;;5010026;28;1285;-86
2021/07/16 16:25:36;;;;;;;;;;;;;;;;;;4994428;28;1625;-86
2021/07/16 16:28:01;;;;;;;;;;;;;;;;;;4992661;28;1951;-86
2021/07/16 16:30:27;;;;;;;;;;;;;;;;;;5009604;28;1268;-86
2021/07/16 16:32:52;;;;;;;;;;;;;;;;;;4992562;28;1605;-86
2021/07/16 16:35:17;;;;;;;;;;;;;;;;;;5005399;28;1273;-86
2021/07/16 16:37:42;;;;;;;;;;;;;;;;;;5013341;28;1163;-87
2021/07/16 16:40:08;;;;;;;;;;;;;;;;;;4995368;28;1607;-86
2021/07/16 16:42:34;;;;;;;;;;;;;;;;;;5005415;28;1464;-86
2021/07/16 16:44:59;;;;;;;;;;;;;;;;;;5013696;28;1206;-86
2021/07/16 16:47:24;;;;;;;;;;;;;;;;;;4994344;28;1977;-86
2021/07/16 16:49:49;;;;;;;;;;;;;;;;;;4995838;28;1628;-86
2021/07/16 16:52:14;;;;;;;;;;;;;;;;;;4992941;28;1522;-86
2021/07/16 16:54:40;;;;;;;;;;;;;;;;;;4995911;28;1582;-86